Flight Track Log - Related Links

Times and Time Zones

All times are in EDT time to prevent confusion due to time zone crossing. See the N4118B flight status page for this flight to view local times or setup timezone preferences in your user account.

Time Position Orientation Groundspeed Altitude Reporting Facility
EDT Latitude Longitude Course Direction KTS MPH feet Rate Location/Type
Wed 09:37:28 AM 36.0833 -86.6833 180° South 114 131 1,300  Level Nashville TRACON
Wed 09:38:13 AM 36.0842 -86.6514 88° East 118 136 1,600 505 Climbing Memphis Center
Wed 09:39:15 AM 36.0828 -86.6019 92° East 135 155 2,200 629 Climbing Memphis Center
Wed 09:40:17 AM 36.0836 -86.5542 89° East 138 159 2,900 677 Climbing Memphis Center
Wed 09:41:19 AM 36.0797 -86.5075 96° East 138 159 3,600 629 Climbing Memphis Center
Wed 09:42:21 AM 36.0697 -86.4553 103° East 135 155 4,200 581 Climbing Memphis Center
Wed 09:43:23 AM 36.0686 -86.4022 91° East 147 169 4,800 581 Climbing Memphis Center
Wed 09:44:25 AM 36.0667 -86.3511 93° East 149 171 5,400 581 Climbing Memphis Center
Wed 09:45:27 AM 36.0600 -86.3014 99° East 148 170 6,000 629 Climbing Memphis Center
Wed 09:46:29 AM 36.0550 -86.2511 97° East 148 170 6,700 581 Climbing Memphis Center
Wed 09:47:31 AM 36.0519 -86.2006 94° East 148 170 7,200 387 Climbing Memphis Center
Wed 09:48:33 AM 36.0503 -86.1481 92° East 148 170 7,500 192 Climbing Memphis Center
Wed 09:49:36 AM 36.0469 -86.0775 93° East 173 199 7,600 48 Climbing Memphis Center
Wed 09:50:38 AM 36.0392 -86.0131 98° East 183 211 7,600  Level Memphis Center
Wed 09:51:40 AM 36.0331 -85.9456 96° East 190 219 7,600  Level Memphis Center
Wed 09:52:42 AM 36.0281 -85.8783 95° East 192 221 7,600 48 Level Memphis Center
Wed 09:53:44 AM 36.0231 -85.8150 96° East 193 222 7,700 48 Climbing Memphis Center
Wed 09:54:46 AM 36.0172 -85.7342 95° East 194 223 7,700  Level Memphis Center
Wed 09:55:48 AM 36.0144 -85.6703 93° East 193 222 7,700  Level Memphis Center
Wed 09:56:50 AM 36.0097 -85.6072 95° East 190 219 7,700  Level Memphis Center
Wed 09:57:52 AM 36.0061 -85.5450 94° East 184 212 7,700  Level Memphis Center
Wed 09:58:54 AM 36.0017 -85.4825 95° East 184 212 7,700  Level Memphis Center
Wed 09:59:56 AM 35.9961 -85.4189 96° East 184 212 7,700  Level Memphis Center
Wed 10:00:58 AM 35.9858 -85.3456 100° East 183 211 7,700  Level Memphis Center
Wed 10:02:00 AM 35.9772 -85.2831 100° East 184 212 7,700  Level Memphis Center
Wed 10:03:02 AM 35.9683 -85.2206 100° East 184 212 7,700  Level Memphis Center
Wed 10:04:05 AM 35.9589 -85.1572 100° East 184 212 7,700  Level Memphis Center
Wed 10:05:07 AM 35.9503 -85.0953 100° East 184 212 7,700  Level Memphis Center
Wed 10:05:40 AM 35.9436 -85.0594 103° East 181 208 7,700  Level Atlanta Center
Wed 10:06:40 AM 35.9336 -84.9928 100° East 181 208 7,700  Level Atlanta Center
Wed 10:07:40 AM 35.9258 -84.9286 98° East 181 208 7,700 -100 Level Atlanta Center
Wed 10:08:40 AM 35.9178 -84.8669 99° East 181 208 7,500  Descending Atlanta Center
Wed 10:09:40 AM 35.9119 -84.8053 97° East 181 208 7,700 100 Climbing Atlanta Center
Wed 10:10:40 AM 35.9061 -84.7411 96° East 181 208 7,700  Level Atlanta Center
Wed 10:11:40 AM 35.9003 -84.6797 97° East 181 208 7,700  Level Atlanta Center
Wed 10:12:40 AM 35.8922 -84.6156 99° East 181 208 7,700  Level Atlanta Center
Wed 10:13:40 AM 35.8861 -84.5539 97° East 181 208 7,700  Level Atlanta Center
Wed 10:14:40 AM 35.8781 -84.4897 99° East 181 208 7,700  Level Atlanta Center
Wed 10:15:40 AM 35.8700 -84.4283 99° East 181 208 7,700  Level Atlanta Center
Wed 10:16:40 AM 35.8597 -84.3667 102° East 181 208 7,700  Level Atlanta Center
Wed 10:17:40 AM 35.8514 -84.3053 99° East 181 208 7,700  Level Atlanta Center
Wed 10:19:00 AM 35.8395 -84.2382 102° East  Level FlightAware Approximate
Wed 10:26:00 AM 35.8110 -83.9940 90° East  Level Estimated
Wed 10:27:00 AM 35.8110 -83.9940 90° East  Level Estimated
Wed 10:28:00 AM 35.8110 -83.9940 90° East  Level Estimated
Wed 10:29:00 AM 35.8110 -83.9940 90° East  Level Estimated
Wed 10:30:00 AM 35.8110 -83.9940 90° East  Level Estimated
Wed 10:31:00 AM 35.8110 -83.9940 90° East  Level Estimated
Wed 10:32:00 AM 35.8110 -83.9940 90° East  Level Estimated
Wed 10:33:00 AM 35.8110 -83.9940 90° East  Level Estimated
Wed 10:34:00 AM 35.8110 -83.9940 90° East  Level Estimated
Wed 10:35:00 AM 35.8110 -83.9940 90° East  Level Estimated

Login

Don't have an account? Register now (free) for customized features, flight alerts, and more!